createdAt,value
2018-08-23T00:00:03.132Z,18.79
2018-08-23T00:01:03.118Z,18.71
2018-08-23T00:02:03.134Z,18.71
2018-08-23T00:03:03.120Z,18.74
2018-08-23T00:04:03.085Z,18.68
2018-08-23T00:05:03.073Z,18.69
2018-08-23T00:06:03.060Z,18.71
2018-08-23T00:07:03.081Z,18.72
2018-08-23T00:08:03.056Z,18.68
2018-08-23T00:09:03.030Z,18.72
2018-08-23T00:10:03.020Z,18.72
2018-08-23T00:11:03.004Z,18.54
2018-08-23T00:12:03.027Z,18.54
2018-08-23T00:13:02.986Z,18.57
2018-08-23T00:14:02.973Z,18.51
2018-08-23T00:15:02.963Z,18.54
2018-08-23T00:16:02.948Z,18.54
2018-08-23T00:17:02.963Z,18.50
2018-08-23T00:18:02.926Z,18.51
2018-08-23T00:19:02.916Z,18.49
2018-08-23T00:20:02.905Z,18.46
2018-08-23T00:21:02.897Z,18.56
2018-08-23T00:22:02.917Z,18.53
2018-08-23T00:23:02.872Z,18.51
2018-08-23T00:24:02.862Z,18.54
2018-08-23T00:25:02.860Z,18.39
2018-08-23T00:26:02.844Z,18.42
2018-08-23T00:27:02.926Z,18.39
2018-08-23T00:28:02.824Z,18.42
2018-08-23T00:29:02.811Z,18.36
2018-08-23T00:30:02.805Z,18.50
2018-08-23T00:31:02.792Z,18.49
2018-08-23T00:32:02.819Z,18.44
2018-08-23T00:33:02.768Z,18.51
2018-08-23T00:34:02.755Z,18.35
2018-08-23T00:35:02.749Z,18.34
2018-08-23T00:36:02.742Z,18.34
2018-08-23T00:37:02.755Z,18.38
2018-08-23T00:38:02.724Z,18.38
2018-08-23T00:39:02.718Z,18.39
2018-08-23T00:40:02.689Z,18.44
2018-08-23T00:41:02.677Z,18.34
2018-08-23T00:42:02.703Z,18.44
2018-08-23T00:43:02.668Z,18.41
2018-08-23T00:44:02.651Z,18.31
2018-08-23T00:45:02.801Z,18.29
2018-08-23T00:46:02.639Z,18.35
2018-08-23T00:47:02.644Z,18.28
2018-08-23T00:48:02.612Z,18.34
2018-08-23T00:49:02.595Z,18.35
2018-08-23T00:50:02.587Z,18.32
2018-08-23T00:51:02.572Z,18.29
2018-08-23T00:52:02.588Z,18.32
2018-08-23T00:53:02.559Z,18.28
2018-08-23T00:54:02.600Z,18.25
2018-08-23T00:55:02.530Z,18.35
2018-08-23T00:56:02.523Z,18.23
2018-08-23T00:57:02.541Z,18.23
2018-08-23T00:58:02.515Z,18.26
2018-08-23T00:59:02.488Z,18.19
2018-08-23T01:00:02.497Z,18.21
2018-08-23T01:01:02.465Z,18.19
2018-08-23T01:02:02.474Z,18.23
2018-08-23T01:03:02.482Z,18.21
2018-08-23T01:04:02.444Z,18.23
2018-08-23T01:05:02.428Z,18.17
2018-08-23T01:06:02.422Z,18.14
2018-08-23T01:07:02.412Z,18.17
2018-08-23T01:08:02.417Z,18.10
2018-08-23T01:09:02.382Z,18.11
2018-08-23T01:10:02.381Z,18.02
2018-08-23T01:11:02.361Z,18.07
2018-08-23T01:12:02.356Z,18.05
2018-08-23T01:13:02.369Z,18.02
2018-08-23T01:14:02.335Z,17.99
2018-08-23T01:15:02.320Z,18.07
2018-08-23T01:16:02.315Z,18.01
2018-08-23T01:17:02.328Z,17.99
2018-08-23T01:18:02.313Z,17.98
2018-08-23T01:19:02.278Z,18.02
2018-08-23T01:20:02.273Z,17.98
2018-08-23T01:21:02.251Z,18.01
2018-08-23T01:22:02.247Z,17.96
2018-08-23T01:23:02.257Z,18.02
2018-08-23T01:24:02.227Z,17.95
2018-08-23T01:25:02.210Z,18.01
2018-08-23T01:26:02.209Z,17.86
2018-08-23T01:27:02.200Z,17.87
2018-08-23T01:28:02.208Z,17.86
2018-08-23T01:29:02.167Z,17.92
2018-08-23T01:30:02.172Z,17.95
2018-08-23T01:31:02.150Z,17.84
2018-08-23T01:32:02.139Z,17.86
2018-08-23T01:33:02.147Z,17.89
2018-08-23T01:34:02.120Z,17.86
2018-08-23T01:35:02.110Z,17.80
2018-08-23T01:36:02.093Z,17.83
2018-08-23T01:37:02.086Z,17.84
2018-08-23T01:38:02.103Z,17.81
2018-08-23T01:39:02.061Z,17.80
2018-08-23T01:40:02.061Z,17.77
2018-08-23T01:41:02.049Z,17.79
2018-08-23T01:42:02.031Z,17.79
2018-08-23T01:43:02.044Z,17.77
2018-08-23T01:44:02.006Z,17.73
2018-08-23T01:45:02.002Z,17.60
2018-08-23T01:46:02.005Z,17.71
2018-08-23T01:47:01.976Z,17.65
2018-08-23T01:48:01.995Z,17.65
2018-08-23T01:49:01.957Z,17.68
2018-08-23T01:50:01.953Z,17.63
2018-08-23T01:51:01.941Z,17.66
2018-08-23T01:52:01.920Z,17.66
2018-08-23T01:53:01.945Z,17.63
2018-08-23T01:54:01.902Z,17.66
2018-08-23T01:55:01.887Z,17.63
2018-08-23T01:56:01.885Z,17.60
2018-08-23T01:57:01.866Z,17.68
2018-08-23T01:58:01.885Z,17.66
2018-08-23T01:59:01.850Z,17.60
2018-08-23T02:00:01.835Z,17.65
2018-08-23T02:01:01.842Z,17.60
2018-08-23T02:02:01.812Z,17.60
2018-08-23T02:03:01.837Z,17.65
2018-08-23T02:04:01.800Z,17.60
2018-08-23T02:05:01.792Z,17.57
2018-08-23T02:06:01.774Z,17.51
2018-08-23T02:07:01.762Z,17.54
2018-08-23T02:08:01.791Z,17.47
2018-08-23T02:09:01.749Z,17.49
2018-08-23T02:10:01.735Z,17.47
2018-08-23T02:11:01.718Z,17.46
2018-08-23T02:12:01.704Z,17.46
2018-08-23T02:13:01.708Z,17.46
2018-08-23T02:14:01.713Z,17.51
2018-08-23T02:15:01.680Z,17.55
2018-08-23T02:16:01.672Z,17.49
2018-08-23T02:17:01.656Z,17.57
2018-08-23T02:18:01.648Z,17.57
2018-08-23T02:19:01.663Z,17.57
2018-08-23T02:20:01.629Z,17.58
2018-08-23T02:21:01.610Z,17.60
2018-08-23T02:22:01.623Z,17.58
2018-08-23T02:23:01.600Z,17.60
2018-08-23T02:24:01.623Z,17.65
2018-08-23T02:25:01.564Z,17.62
2018-08-23T02:26:01.555Z,17.60
2018-08-23T02:27:01.545Z,17.62
2018-08-23T02:28:01.543Z,17.55
2018-08-23T02:29:01.527Z,17.57
2018-08-23T02:30:01.541Z,17.54
2018-08-23T02:31:01.511Z,17.57
2018-08-23T02:32:01.501Z,17.54
2018-08-23T02:33:01.481Z,17.51
2018-08-23T02:34:01.499Z,17.54
2018-08-23T02:35:01.466Z,17.46
2018-08-23T02:36:01.455Z,17.51
2018-08-23T02:37:01.446Z,17.53
2018-08-23T02:38:01.478Z,17.51
2018-08-23T02:39:01.452Z,17.51
2018-08-23T02:40:01.410Z,17.53
2018-08-23T02:41:01.409Z,17.46
2018-08-23T02:42:01.400Z,17.45
2018-08-23T02:43:01.372Z,17.43
2018-08-23T02:44:01.368Z,17.38
2018-08-23T02:45:01.380Z,17.38
2018-08-23T02:46:01.349Z,17.33
2018-08-23T02:47:01.338Z,17.38
2018-08-23T02:48:01.327Z,17.27
2018-08-23T02:49:01.340Z,17.25
2018-08-23T02:50:01.300Z,17.36
2018-08-23T02:51:01.316Z,17.28
2018-08-23T02:52:01.282Z,17.35
2018-08-23T02:53:01.272Z,17.30
2018-08-23T02:54:01.260Z,17.28
2018-08-23T02:55:01.273Z,17.22
2018-08-23T02:56:01.246Z,17.25
2018-08-23T02:57:01.227Z,17.27
2018-08-23T02:58:01.214Z,17.22
2018-08-23T02:59:01.204Z,17.15
2018-08-23T03:00:01.225Z,17.15
2018-08-23T03:01:01.185Z,17.15
2018-08-23T03:02:01.176Z,17.15
2018-08-23T03:03:01.173Z,17.24
2018-08-23T03:04:01.157Z,17.15
2018-08-23T03:05:01.168Z,17.15
2018-08-23T03:06:01.137Z,17.15
2018-08-23T03:07:01.123Z,17.14
2018-08-23T03:08:01.111Z,17.14
2018-08-23T03:09:01.096Z,17.17
2018-08-23T03:10:01.119Z,17.18
2018-08-23T03:11:01.081Z,17.15
2018-08-23T03:12:01.068Z,17.14
2018-08-23T03:13:01.058Z,17.10
2018-08-23T03:14:01.081Z,17.17
2018-08-23T03:15:01.063Z,17.09
2018-08-23T03:16:01.022Z,17.06
2018-08-23T03:17:01.016Z,17.03
2018-08-23T03:18:01.004Z,16.99
2018-08-23T03:19:00.994Z,17.03
2018-08-23T03:20:01.010Z,17.12
2018-08-23T03:21:00.969Z,17.00
2018-08-23T03:22:00.956Z,16.96
2018-08-23T03:23:00.948Z,16.91
2018-08-23T03:24:00.940Z,16.95
2018-08-23T03:25:01.103Z,16.91
2018-08-23T03:26:00.920Z,16.95
2018-08-23T03:27:00.905Z,16.95
2018-08-23T03:28:00.888Z,16.85
2018-08-23T03:29:00.880Z,16.91
2018-08-23T03:30:00.917Z,16.85
2018-08-23T03:31:00.856Z,16.84
2018-08-23T03:32:00.869Z,16.82
2018-08-23T03:33:00.838Z,16.95
2018-08-23T03:34:00.831Z,16.96
2018-08-23T03:35:00.821Z,16.95
2018-08-23T03:36:00.828Z,16.96
2018-08-23T03:37:00.802Z,16.92
2018-08-23T03:38:00.793Z,16.95
2018-08-23T03:39:00.771Z,16.80
2018-08-23T03:40:00.760Z,16.84
2018-08-23T03:41:00.777Z,16.80
2018-08-23T03:42:00.745Z,16.82
2018-08-23T03:43:00.737Z,16.88
2018-08-23T03:44:00.730Z,16.85
2018-08-23T03:45:00.706Z,16.81
2018-08-23T03:46:00.723Z,16.77
2018-08-23T03:47:00.684Z,16.78
2018-08-23T03:48:00.680Z,16.69
2018-08-23T03:49:00.662Z,16.82
2018-08-23T03:50:00.655Z,16.72
2018-08-23T03:51:00.677Z,16.62
2018-08-23T03:52:00.637Z,16.65
2018-08-23T03:53:00.624Z,16.65
2018-08-23T03:54:00.621Z,16.67
2018-08-23T03:55:00.602Z,16.67
2018-08-23T03:56:00.612Z,16.65
2018-08-23T03:57:00.585Z,16.70
2018-08-23T03:58:00.576Z,16.62
2018-08-23T03:59:00.551Z,16.70
2018-08-23T04:00:00.539Z,16.70
2018-08-23T04:01:00.556Z,16.62
2018-08-23T04:02:00.525Z,16.63
2018-08-23T04:03:00.537Z,16.63
2018-08-23T04:04:00.501Z,16.77
2018-08-23T04:05:00.505Z,16.66
2018-08-23T04:06:00.503Z,16.70
2018-08-23T04:07:00.467Z,16.66
2018-08-23T04:08:00.460Z,16.77
2018-08-23T04:09:00.445Z,16.69
2018-08-23T04:10:00.437Z,16.67
2018-08-23T04:11:00.459Z,16.69
2018-08-23T04:12:00.413Z,16.70
2018-08-23T04:13:00.403Z,16.63
2018-08-23T04:14:00.395Z,16.63
2018-08-23T04:15:00.379Z,16.66
2018-08-23T04:16:00.373Z,16.60
2018-08-23T04:17:00.390Z,16.62
2018-08-23T04:18:00.352Z,16.60
2018-08-23T04:19:00.335Z,16.62
2018-08-23T04:20:00.322Z,16.51
2018-08-23T04:21:00.333Z,16.54
2018-08-23T04:22:00.440Z,16.47
2018-08-23T04:23:00.508Z,16.41
2018-08-23T04:24:00.306Z,16.51
2018-08-23T04:25:00.326Z,16.47
2018-08-23T04:26:00.294Z,16.37
2018-08-23T04:27:00.245Z,16.54
2018-08-23T04:28:00.258Z,16.42
2018-08-23T04:29:00.237Z,16.45
2018-08-23T04:30:00.225Z,16.42
2018-08-23T04:31:00.214Z,16.36
2018-08-23T04:32:00.202Z,16.34
2018-08-23T04:33:00.212Z,16.33
2018-08-23T04:34:00.176Z,16.32
2018-08-23T04:35:00.165Z,16.30
2018-08-23T04:36:00.164Z,16.29
2018-08-23T04:37:00.145Z,16.32
2018-08-23T04:38:00.150Z,16.34
2018-08-23T04:39:00.127Z,16.29
2018-08-23T04:40:00.106Z,16.27
2018-08-23T04:41:00.113Z,16.29
2018-08-23T04:42:00.090Z,16.23
2018-08-23T04:43:00.095Z,16.22
2018-08-23T04:44:00.070Z,16.26
2018-08-23T04:45:00.048Z,16.25
2018-08-23T04:46:00.050Z,16.18
2018-08-23T04:47:00.031Z,16.27
2018-08-23T04:48:00.063Z,16.29
2018-08-23T04:49:00.011Z,16.26
2018-08-23T04:49:59.999Z,16.33
2018-08-23T04:50:59.993Z,16.33
2018-08-23T04:51:59.976Z,16.29
2018-08-23T04:52:59.995Z,16.40
2018-08-23T04:53:59.974Z,16.26
2018-08-23T04:54:59.942Z,16.25
2018-08-23T04:55:59.941Z,16.29
2018-08-23T04:56:59.919Z,16.37
2018-08-23T04:57:59.911Z,16.40
2018-08-23T04:58:59.938Z,16.34
2018-08-23T04:59:59.885Z,16.36
2018-08-23T05:00:59.874Z,16.32
2018-08-23T05:01:59.869Z,16.33
2018-08-23T05:02:59.855Z,16.34
2018-08-23T05:03:59.890Z,16.47
2018-08-23T05:04:59.833Z,16.44
2018-08-23T05:05:59.828Z,16.40
2018-08-23T05:06:59.806Z,16.42
2018-08-23T05:07:59.800Z,16.45
2018-08-23T05:08:59.827Z,16.40
2018-08-23T05:09:59.778Z,16.37
2018-08-23T05:10:59.762Z,16.37
2018-08-23T05:11:59.752Z,16.37
2018-08-23T05:12:59.753Z,16.41
2018-08-23T05:13:59.755Z,16.45
2018-08-23T05:14:59.751Z,16.37
2018-08-23T05:15:59.713Z,16.40
2018-08-23T05:16:59.701Z,16.32
2018-08-23T05:17:59.694Z,16.36
2018-08-23T05:18:59.682Z,16.42
2018-08-23T05:19:59.692Z,16.42
2018-08-23T05:20:59.669Z,16.47
2018-08-23T05:21:59.643Z,16.52
2018-08-23T05:22:59.686Z,16.51
2018-08-23T05:23:59.625Z,16.52
2018-08-23T05:24:59.611Z,16.44
2018-08-23T05:25:59.620Z,16.59
2018-08-23T05:26:59.586Z,16.60
2018-08-23T05:27:59.577Z,16.63
2018-08-23T05:28:59.579Z,16.67
2018-08-23T05:29:59.555Z,16.63
2018-08-23T05:30:59.578Z,16.70
2018-08-23T05:31:59.532Z,16.78
2018-08-23T05:32:59.532Z,16.84
2018-08-23T05:33:59.515Z,16.95
2018-08-23T05:34:59.507Z,17.00
2018-08-23T05:35:59.511Z,17.02
2018-08-23T05:36:59.493Z,17.07
2018-08-23T05:37:59.485Z,17.02
2018-08-23T05:38:59.479Z,17.14
2018-08-23T05:39:59.448Z,17.18
2018-08-23T05:40:59.462Z,17.15
2018-08-23T05:41:59.449Z,17.20
2018-08-23T05:42:59.412Z,17.09
2018-08-23T05:43:59.406Z,17.25
2018-08-23T05:44:59.391Z,17.27
2018-08-23T05:45:59.409Z,17.35
2018-08-23T05:46:59.380Z,17.42
2018-08-23T05:47:59.369Z,17.42
2018-08-23T05:48:59.357Z,17.49
2018-08-23T05:49:59.386Z,17.46
2018-08-23T05:50:59.353Z,17.65
2018-08-23T05:51:59.319Z,17.60
2018-08-23T05:52:59.320Z,17.76
2018-08-23T05:53:59.290Z,17.81
2018-08-23T05:54:59.289Z,17.89
2018-08-23T05:55:59.300Z,17.91
2018-08-23T05:56:59.289Z,18.04
2018-08-23T05:57:59.250Z,18.01
2018-08-23T05:58:59.244Z,18.16
2018-08-23T05:59:59.235Z,18.20
2018-08-23T06:00:59.220Z,18.34
2018-08-23T06:01:59.239Z,18.36
2018-08-23T06:02:59.219Z,18.36
2018-08-23T06:03:59.184Z,18.42
2018-08-23T06:04:59.196Z,18.56
2018-08-23T06:05:59.162Z,18.66
2018-08-23T06:06:59.176Z,18.60
2018-08-23T06:07:59.149Z,18.69
2018-08-23T06:08:59.138Z,18.82
2018-08-23T06:09:59.123Z,18.87
2018-08-23T06:10:59.115Z,18.96
2018-08-23T06:11:59.139Z,19.01
2018-08-23T06:12:59.091Z,19.10
2018-08-23T06:13:59.083Z,19.12
2018-08-23T06:14:59.067Z,19.23
2018-08-23T06:15:59.063Z,19.28
2018-08-23T06:16:59.058Z,19.28
2018-08-23T06:17:59.055Z,19.42
2018-08-23T06:18:59.023Z,19.49
2018-08-23T06:19:59.013Z,19.49
2018-08-23T06:20:59.009Z,19.49
2018-08-23T06:21:58.994Z,19.60
2018-08-23T06:22:59.011Z,19.65
2018-08-23T06:23:58.966Z,19.75
2018-08-23T06:24:58.962Z,19.86
2018-08-23T06:25:58.944Z,19.86
2018-08-23T06:26:58.950Z,19.82
2018-08-23T06:27:58.923Z,19.86
2018-08-23T06:28:58.936Z,19.92
2018-08-23T06:29:58.906Z,19.87
2018-08-23T06:30:58.932Z,19.97
2018-08-23T06:31:58.888Z,20.01
2018-08-23T06:32:58.954Z,20.17
2018-08-23T06:33:58.937Z,20.10
2018-08-23T06:34:58.873Z,20.20
2018-08-23T06:35:58.833Z,20.31
2018-08-23T06:36:58.822Z,20.31
2018-08-23T06:37:58.838Z,20.40
2018-08-23T06:38:58.824Z,20.57
2018-08-23T06:39:58.807Z,20.64
2018-08-23T06:40:58.796Z,20.78
2018-08-23T06:41:58.768Z,20.90
2018-08-23T06:42:58.766Z,21.03
2018-08-23T06:43:58.770Z,21.05
2018-08-23T06:44:58.733Z,21.13
2018-08-23T06:45:58.747Z,21.26
2018-08-23T06:46:58.716Z,21.31
2018-08-23T06:47:58.716Z,21.38
2018-08-23T06:48:58.749Z,21.40
2018-08-23T06:49:58.706Z,21.43
2018-08-23T06:50:58.677Z,21.49
2018-08-23T06:51:58.667Z,21.58
2018-08-23T06:52:58.658Z,21.74
2018-08-23T06:53:58.638Z,21.98
2018-08-23T06:54:58.654Z,22.17
2018-08-23T06:55:58.618Z,22.20
2018-08-23T06:56:58.624Z,22.30
2018-08-23T06:57:58.593Z,22.39
2018-08-23T06:58:58.627Z,22.46
2018-08-23T06:59:58.598Z,22.52
2018-08-23T07:00:58.559Z,22.63
2018-08-23T07:01:58.555Z,22.54
2018-08-23T07:02:58.548Z,22.63
2018-08-23T07:03:58.541Z,22.66
2018-08-23T07:04:58.566Z,22.75
2018-08-23T07:05:58.524Z,22.74
2018-08-23T07:06:58.497Z,22.75
2018-08-23T07:07:58.483Z,22.78
2018-08-23T07:08:58.476Z,22.74
2018-08-23T07:09:58.461Z,22.84
2018-08-23T07:10:58.477Z,22.86
2018-08-23T07:11:58.448Z,22.99
2018-08-23T07:12:58.434Z,23.18
2018-08-23T07:13:58.423Z,23.22
2018-08-23T07:14:58.422Z,23.31
2018-08-23T07:15:58.420Z,23.44
2018-08-23T07:16:58.393Z,23.64
2018-08-23T07:17:58.377Z,23.77
2018-08-23T07:18:58.373Z,23.90
2018-08-23T07:19:58.354Z,23.94
2018-08-23T07:20:58.375Z,23.94
2018-08-23T07:21:58.341Z,24.05
2018-08-23T07:22:58.330Z,23.93
2018-08-23T07:23:58.311Z,23.81
2018-08-23T07:24:58.309Z,23.62
2018-08-23T07:25:58.441Z,23.56
2018-08-23T07:26:58.279Z,23.59
2018-08-23T07:27:58.292Z,23.47
2018-08-23T07:28:58.299Z,23.34
2018-08-23T07:29:58.284Z,23.32
2018-08-23T07:30:58.236Z,23.29
2018-08-23T07:31:58.267Z,23.26
2018-08-23T07:32:58.213Z,23.23
2018-08-23T07:33:58.215Z,23.18
2018-08-23T07:34:58.190Z,23.06
2018-08-23T07:35:58.181Z,23.00
2018-08-23T07:36:58.207Z,23.07
2018-08-23T07:37:58.168Z,23.03
2018-08-23T07:38:58.164Z,22.91
2018-08-23T07:39:58.165Z,23.01
2018-08-23T07:40:58.131Z,23.03
2018-08-23T07:41:58.134Z,23.07
2018-08-23T07:42:58.187Z,22.94
2018-08-23T07:43:58.106Z,22.96
2018-08-23T07:44:58.087Z,22.93
2018-08-23T07:45:58.077Z,23.04
2018-08-23T07:46:58.065Z,23.11
2018-08-23T07:47:58.077Z,23.14
2018-08-23T07:48:58.058Z,23.23
2018-08-23T07:49:58.030Z,23.25
2018-08-23T07:50:58.025Z,23.25
2018-08-23T07:51:58.017Z,23.26
2018-08-23T07:52:58.071Z,23.32
2018-08-23T07:53:57.992Z,23.31
2018-08-23T07:54:57.987Z,23.22
2018-08-23T07:55:57.969Z,23.19
2018-08-23T07:56:57.959Z,23.26
2018-08-23T07:57:57.975Z,23.21
2018-08-23T07:58:57.934Z,23.23
2018-08-23T07:59:57.936Z,23.26
2018-08-23T08:00:57.911Z,23.35
2018-08-23T08:01:57.908Z,23.39
2018-08-23T08:02:57.919Z,23.54
2018-08-23T08:03:57.884Z,23.69
2018-08-23T08:04:57.884Z,23.72
2018-08-23T08:05:57.872Z,23.68
2018-08-23T08:06:57.847Z,23.72
2018-08-23T08:07:57.889Z,23.75
2018-08-23T08:08:57.841Z,23.79
2018-08-23T08:09:57.815Z,23.94
2018-08-23T08:10:57.803Z,23.96
2018-08-23T08:11:57.818Z,23.99
2018-08-23T08:12:57.805Z,24.04
2018-08-23T08:13:57.771Z,24.02
2018-08-23T08:14:57.835Z,24.14
2018-08-23T08:15:57.748Z,24.27
2018-08-23T08:16:57.737Z,24.18
2018-08-23T08:17:57.757Z,24.34
2018-08-23T08:18:57.720Z,24.23
2018-08-23T08:19:57.709Z,24.41
2018-08-23T08:20:57.772Z,24.52
2018-08-23T08:21:57.684Z,24.59
2018-08-23T08:22:57.708Z,24.67
2018-08-23T08:23:57.675Z,24.71
2018-08-23T08:24:57.653Z,24.74
2018-08-23T08:25:57.640Z,24.79
2018-08-23T08:26:57.630Z,24.74
2018-08-23T08:27:57.648Z,24.74
2018-08-23T08:28:57.610Z,24.86
2018-08-23T08:29:57.597Z,24.89
2018-08-23T08:30:57.588Z,24.99
2018-08-23T08:31:57.583Z,25.09
2018-08-23T08:32:57.589Z,25.14
2018-08-23T08:33:57.560Z,25.20
2018-08-23T08:34:57.558Z,25.29
2018-08-23T08:35:57.533Z,25.35
2018-08-23T08:36:57.527Z,25.39
2018-08-23T08:37:57.543Z,25.53
2018-08-23T08:38:57.505Z,25.71
2018-08-23T08:39:57.505Z,25.74
2018-08-23T08:40:57.480Z,25.94
2018-08-23T08:41:57.504Z,26.04
2018-08-23T08:42:57.497Z,26.11
2018-08-23T08:43:57.467Z,26.28
2018-08-23T08:44:57.436Z,26.32
2018-08-23T08:45:57.427Z,26.32
2018-08-23T08:46:57.414Z,26.41
2018-08-23T08:47:57.431Z,26.50
2018-08-23T08:48:57.411Z,26.42
2018-08-23T08:49:57.392Z,26.46
2018-08-23T08:50:57.372Z,26.61
2018-08-23T08:51:57.361Z,26.68
2018-08-23T08:52:57.361Z,26.78
2018-08-23T08:53:57.366Z,26.93
2018-08-23T08:54:57.338Z,27.02
2018-08-23T08:55:57.405Z,27.05
2018-08-23T08:56:57.457Z,26.90
2018-08-23T08:57:57.313Z,26.88
2018-08-23T08:58:57.326Z,26.94
2018-08-23T08:59:57.320Z,26.84
2018-08-23T09:00:57.268Z,26.69
2018-08-23T09:01:57.292Z,26.72
2018-08-23T09:02:57.279Z,26.73
2018-08-23T09:03:57.272Z,26.60
2018-08-23T09:04:57.225Z,26.71
2018-08-23T09:05:57.221Z,26.81
2018-08-23T09:06:57.206Z,26.94
2018-08-23T09:07:57.336Z,27.12
2018-08-23T09:08:57.184Z,27.12
2018-08-23T09:09:57.628Z,27.20
2018-08-23T09:10:57.164Z,27.49
2018-08-23T09:11:57.155Z,27.52
2018-08-23T09:12:57.149Z,27.48
2018-08-23T09:13:57.139Z,27.45
2018-08-23T09:14:57.166Z,27.46
2018-08-23T09:15:57.125Z,27.53
2018-08-23T09:16:57.118Z,27.53
2018-08-23T09:17:57.091Z,27.50
2018-08-23T09:18:57.090Z,27.61
2018-08-23T09:19:57.080Z,27.69
2018-08-23T09:20:57.211Z,27.72
2018-08-23T09:21:57.059Z,27.72
2018-08-23T09:22:57.067Z,27.77
2018-08-23T09:23:57.035Z,27.83
2018-08-23T09:24:57.034Z,27.99
2018-08-23T09:25:57.039Z,27.93
2018-08-23T09:26:57.001Z,27.93
2018-08-23T09:27:57.034Z,27.90
2018-08-23T09:28:56.981Z,27.93
2018-08-23T09:29:56.963Z,28.05
2018-08-23T09:30:56.979Z,28.03
2018-08-23T09:31:56.982Z,28.05
2018-08-23T09:32:56.932Z,27.98
2018-08-23T09:33:56.968Z,28.06
2018-08-23T09:34:56.936Z,28.08
2018-08-23T09:35:56.976Z,28.05
2018-08-23T09:36:56.889Z,28.21
2018-08-23T09:37:56.979Z,28.27
2018-08-23T09:38:56.868Z,28.35
2018-08-23T09:39:56.864Z,28.24
2018-08-23T09:40:56.891Z,28.08
2018-08-23T09:41:56.848Z,27.90
2018-08-23T09:42:56.884Z,27.95
2018-08-23T09:43:56.813Z,27.88
2018-08-23T09:44:56.807Z,27.87
2018-08-23T09:45:56.976Z,27.95
2018-08-23T09:46:56.786Z,27.95
2018-08-23T09:47:56.800Z,27.91
2018-08-23T09:48:56.763Z,27.88
2018-08-23T09:49:56.773Z,27.74
2018-08-23T09:50:56.797Z,27.83
2018-08-23T09:51:56.736Z,27.61
2018-08-23T09:52:56.728Z,27.53
2018-08-23T09:53:56.708Z,27.59
2018-08-23T09:54:56.714Z,27.65
2018-08-23T09:55:56.724Z,27.74
2018-08-23T09:56:56.677Z,27.81
2018-08-23T09:57:56.664Z,27.81
2018-08-23T09:58:56.696Z,27.87
2018-08-23T09:59:56.721Z,27.86
2018-08-23T10:00:56.673Z,27.74
2018-08-23T10:01:56.643Z,27.77
2018-08-23T10:02:56.609Z,27.76
2018-08-23T10:03:56.608Z,27.81
2018-08-23T10:04:56.620Z,27.90
2018-08-23T10:05:56.592Z,27.78
2018-08-23T10:06:56.627Z,27.90
2018-08-23T10:07:56.561Z,27.91
2018-08-23T10:08:56.549Z,28.13
2018-08-23T10:09:56.536Z,28.24
2018-08-23T10:10:56.536Z,28.21
2018-08-23T10:11:56.545Z,28.45
2018-08-23T10:12:56.509Z,28.50
2018-08-23T10:13:56.497Z,28.45
2018-08-23T10:14:56.481Z,28.39
2018-08-23T10:15:56.473Z,28.42
2018-08-23T10:16:56.507Z,28.52
2018-08-23T10:17:56.449Z,28.42
2018-08-23T10:18:56.462Z,28.45
2018-08-23T10:19:56.429Z,28.52
2018-08-23T10:20:56.417Z,28.39
2018-08-23T10:21:56.437Z,28.27
2018-08-23T10:22:56.398Z,28.14
2018-08-23T10:23:56.387Z,28.23
2018-08-23T10:24:56.383Z,28.18
2018-08-23T10:25:56.365Z,28.17
2018-08-23T10:26:56.383Z,28.25
2018-08-23T10:27:56.345Z,28.14
2018-08-23T10:28:56.335Z,28.25
2018-08-23T10:29:56.342Z,28.25
2018-08-23T10:30:56.313Z,28.33
2018-08-23T10:31:56.350Z,28.40
2018-08-23T10:32:56.294Z,28.36
2018-08-23T10:33:56.283Z,28.48
2018-08-23T10:34:56.271Z,28.48
2018-08-23T10:35:56.259Z,28.55
2018-08-23T10:36:56.256Z,28.58
2018-08-23T10:37:56.263Z,28.51
2018-08-23T10:38:56.225Z,28.61
2018-08-23T10:39:56.215Z,28.72
2018-08-23T10:40:56.214Z,28.65
2018-08-23T10:41:56.196Z,28.48
2018-08-23T10:42:56.231Z,28.45
2018-08-23T10:43:56.178Z,28.51
2018-08-23T10:44:56.164Z,28.65
2018-08-23T10:45:56.165Z,28.65
2018-08-23T10:46:56.153Z,28.57
2018-08-23T10:47:56.155Z,28.52
2018-08-23T10:48:56.119Z,28.50
2018-08-23T10:49:56.110Z,28.43
2018-08-23T10:50:56.100Z,28.54
2018-08-23T10:51:56.094Z,28.38
2018-08-23T10:52:56.099Z,28.43
2018-08-23T10:53:56.086Z,28.40
2018-08-23T10:54:56.059Z,28.42
2018-08-23T10:55:56.050Z,28.52
2018-08-23T10:56:56.043Z,28.65
2018-08-23T10:57:56.056Z,28.60
2018-08-23T10:58:56.234Z,28.62
2018-08-23T10:59:56.000Z,28.76
2018-08-23T11:00:55.993Z,28.64
2018-08-23T11:01:55.984Z,28.88
2018-08-23T11:02:55.968Z,28.97
2018-08-23T11:03:55.981Z,28.92
2018-08-23T11:04:55.953Z,28.94
2018-08-23T11:05:55.945Z,28.98
2018-08-23T11:06:55.947Z,29.10
2018-08-23T11:07:55.925Z,29.07
2018-08-23T11:08:55.937Z,29.12
2018-08-23T11:09:55.896Z,29.23
2018-08-23T11:10:55.893Z,29.15
2018-08-23T11:11:55.909Z,29.14
2018-08-23T11:12:55.861Z,29.15
2018-08-23T11:13:55.881Z,29.08
2018-08-23T11:14:55.844Z,29.02
2018-08-23T11:15:55.857Z,28.95
2018-08-23T11:16:55.907Z,29.02
2018-08-23T11:17:55.843Z,28.97
2018-08-23T11:18:55.825Z,29.11
2018-08-23T11:19:55.795Z,29.10
2018-08-23T11:20:55.774Z,29.15
2018-08-23T11:21:55.773Z,29.23
2018-08-23T11:22:55.762Z,29.39
2018-08-23T11:23:55.776Z,29.49
2018-08-23T11:24:55.742Z,29.41
2018-08-23T11:25:55.836Z,29.36
2018-08-23T11:26:55.710Z,29.51
2018-08-23T11:27:55.722Z,29.51
2018-08-23T11:28:55.731Z,29.63
2018-08-23T11:29:55.744Z,29.69
2018-08-23T11:30:55.678Z,29.79
2018-08-23T11:31:55.668Z,29.71
2018-08-23T11:32:55.667Z,29.74
2018-08-23T11:33:55.678Z,29.88
2018-08-23T11:34:55.682Z,30.16
2018-08-23T11:35:55.615Z,30.30
2018-08-23T11:36:55.609Z,30.88
2018-08-23T11:37:55.596Z,31.53
2018-08-23T11:38:55.620Z,32.25
2018-08-23T11:39:55.596Z,32.88
2018-08-23T11:40:55.592Z,33.66
2018-08-23T11:41:55.560Z,34.64
2018-08-23T11:42:55.557Z,34.94
2018-08-23T11:43:55.541Z,35.10
2018-08-23T11:44:55.575Z,35.61
2018-08-23T11:45:55.515Z,35.06
2018-08-23T11:46:55.508Z,34.88
2018-08-23T11:47:55.512Z,33.49
2018-08-23T11:48:55.625Z,33.52
2018-08-23T11:49:55.506Z,34.24
2018-08-23T11:50:55.544Z,34.72
2018-08-23T11:51:55.456Z,35.12
2018-08-23T11:52:55.492Z,35.15
2018-08-23T11:53:55.509Z,35.27
2018-08-23T11:54:55.513Z,35.52
2018-08-23T11:55:55.424Z,36.05
2018-08-23T11:56:55.415Z,35.96
2018-08-23T11:57:55.463Z,36.16
2018-08-23T11:58:55.441Z,36.71
2018-08-23T11:59:55.435Z,37.08
2018-08-23T12:00:55.376Z,36.71
2018-08-23T12:01:55.375Z,37.06
2018-08-23T12:02:55.357Z,37.47
2018-08-23T12:03:55.368Z,37.62
2018-08-23T12:04:55.338Z,37.93
2018-08-23T12:05:55.357Z,37.77
2018-08-23T12:06:55.328Z,37.84
2018-08-23T12:07:55.450Z,37.96
2018-08-23T12:08:55.302Z,38.10
2018-08-23T12:09:55.358Z,38.04
2018-08-23T12:10:55.334Z,38.16
2018-08-23T12:11:55.299Z,38.55
2018-08-23T12:12:55.273Z,38.47
2018-08-23T12:13:55.269Z,38.40
2018-08-23T12:14:55.254Z,38.47
2018-08-23T12:15:55.269Z,38.87
2018-08-23T12:16:55.301Z,37.82
2018-08-23T12:17:55.219Z,37.93
2018-08-23T12:18:55.258Z,38.15
2018-08-23T12:19:55.205Z,38.55
2018-08-23T12:20:55.192Z,38.40
2018-08-23T12:21:55.258Z,38.75
2018-08-23T12:22:55.179Z,39.10
2018-08-23T12:23:55.171Z,39.62
2018-08-23T12:24:55.159Z,39.51
2018-08-23T12:25:55.212Z,38.59
2018-08-23T12:26:55.160Z,37.28
2018-08-23T12:27:55.145Z,37.09
2018-08-23T12:28:55.122Z,37.65
2018-08-23T12:29:55.207Z,37.65
2018-08-23T12:30:55.100Z,37.95
2018-08-23T12:31:55.154Z,38.12
2018-08-23T12:32:55.090Z,37.91
2018-08-23T12:33:55.121Z,36.43
2018-08-23T12:34:55.213Z,35.68
2018-08-23T12:35:55.053Z,34.76
2018-08-23T12:36:55.044Z,34.18
2018-08-23T12:37:55.061Z,33.52
2018-08-23T12:38:55.031Z,33.53
2018-08-23T12:39:55.019Z,33.35
2018-08-23T12:40:55.062Z,33.70
2018-08-23T12:41:55.007Z,33.37
2018-08-23T12:42:55.062Z,32.77
2018-08-23T12:43:54.984Z,32.44
2018-08-23T12:44:54.970Z,32.56
2018-08-23T12:45:54.964Z,33.44
2018-08-23T12:46:54.957Z,34.27
2018-08-23T12:47:54.968Z,34.83
2018-08-23T12:48:54.926Z,34.30
2018-08-23T12:49:54.927Z,33.53
2018-08-23T12:50:54.904Z,33.28
2018-08-23T12:51:54.910Z,33.31